ADDS METAR Data INFO
IDs: Format: Raw Decoded Include TAF

Data at: 0044 UTC 22 Oct 2017

K2G4 220025Z AUTO 13007KT 10SM CLR 13/07 A3033 RMK AO1
K2G4 220005Z AUTO 13008KT 10SM CLR 13/07 A3034 RMK AO1
K2G4 212345Z AUTO 12008KT 10SM CLR 13/08 A3034 RMK AO1
K2G4 212325Z AUTO 12008KT 10SM CLR 14/07 A3033 RMK AO1
K2G4 212305Z AUTO 13007KT 10SM CLR 14/08 A3033 RMK AO1
K2G4 212245Z AUTO 13006KT 10SM CLR 15/08 A3033 RMK AO1
K2G4 212225Z AUTO 13008KT 10SM CLR 15/08 A3033 RMK AO1
K2G4 212205Z AUTO 13006KT 10SM CLR 16/08 A3033 RMK AO1
K2G4 212145Z AUTO 14008KT 10SM CLR 16/08 A3033 RMK AO1
K2G4 212125Z AUTO 13008KT 10SM CLR 17/08 A3032 RMK AO1
K2G4 212105Z AUTO 13008KT 10SM CLR 17/08 A3032 RMK AO1
K2G4 212045Z AUTO 13008KT 10SM CLR 18/08 A3032 RMK AO1
K2G4 212025Z AUTO 13007KT 10SM CLR 18/08 A3032 RMK AO1
K2G4 212005Z AUTO 12008KT 10SM CLR 19/08 A3031 RMK AO1
K2G4 211945Z AUTO 12007KT 10SM CLR 20/08 A3031 RMK AO1
K2G4 211925Z AUTO 12007KT 102V162 10SM CLR 21/08 A3031 RMK AO1
K2G4 211905Z AUTO 12003KT 10SM CLR 20/08 A3031 RMK AO1
K2G4 211845Z AUTO 15004KT 10SM CLR 21/07 A3031 RMK AO1
K2G4 211825Z AUTO 13006KT 10SM CLR 21/07 A3031 RMK AO1
K2G4 211805Z AUTO 12003KT 10SM CLR 20/07 A3031 RMK AO1
K2G4 211745Z AUTO 16005KT 10SM CLR 20/07 A3032 RMK AO1
K2G4 211725Z AUTO 15004KT 10SM CLR 21/06 A3033 RMK AO1
K2G4 211705Z AUTO 17003KT 10SM CLR 20/06 A3033 RMK AO1
K2G4 211645Z AUTO 14006KT 10SM CLR 20/05 A3034 RMK AO1
K2G4 211625Z AUTO 16004KT 10SM CLR 20/05 A3034 RMK AO1
K2G4 211545Z AUTO 16006KT 10SM CLR 19/05 A3035 RMK AO1
K2G4 211525Z AUTO 16007KT 10SM CLR 18/06 A3035 RMK AO1
K2G4 211505Z AUTO 16006KT 10SM CLR 18/06 A3035 RMK AO1
K2G4 211445Z AUTO 15008KT 10SM CLR 17/06 A3035 RMK AO1
K2G4 211425Z AUTO 16007KT 10SM CLR 17/07 A3035 RMK AO1
K2G4 211405Z AUTO 14008KT 10SM CLR 16/06 A3035 RMK AO1
K2G4 211345Z AUTO 14008KT 10SM CLR 16/06 A3035 RMK AO1
K2G4 211325Z AUTO 14007KT 10SM CLR 15/06 A3035 RMK AO1
K2G4 211245Z AUTO 15006KT 10SM CLR 13/04 A3034 RMK AO1
K2G4 211225Z AUTO 16005KT 10SM CLR 12/03 A3033 RMK AO1
K2G4 211205Z AUTO 15006KT 10SM CLR 11/03 A3033 RMK AO1
K2G4 211125Z AUTO 17005KT 10SM CLR 11/02 A3032 RMK AO1
K2G4 211105Z AUTO 17004KT 10SM CLR 11/02 A3032 RMK AO1
K2G4 211045Z AUTO 17005KT 10SM CLR 11/02 A3031 RMK AO1
K2G4 211025Z AUTO 15007KT 10SM CLR 12/02 A3030 RMK AO1
K2G4 211005Z AUTO 16007KT 10SM CLR 12/02 A3030 RMK AO1
K2G4 210945Z AUTO 16007KT 10SM CLR 12/01 A3030 RMK AO1
K2G4 210925Z AUTO 15008KT 10SM CLR 12/00 A3029 RMK AO1
K2G4 210905Z AUTO 15009KT 10SM CLR 12/00 A3029 RMK AO1
K2G4 210845Z AUTO 15009KT 10SM CLR 12/00 A3028 RMK AO1
K2G4 210825Z AUTO 15010KT 10SM CLR 12/00 A3028 RMK AO1
K2G4 210805Z AUTO 15008KT 10SM CLR 12/00 A3028 RMK AO1
K2G4 210745Z AUTO 15009KT 10SM CLR 12/00 A3028 RMK AO1
K2G4 210725Z AUTO 15008KT 10SM CLR 12/00 A3028 RMK AO1
K2G4 210705Z AUTO 15008KT 10SM CLR 12/00 A3028 RMK AO1
K2G4 210645Z AUTO 15008KT 10SM CLR 12/00 A3028 RMK AO1
K2G4 210625Z AUTO 15007KT 10SM CLR 12/00 A3029 RMK AO1
K2G4 210605Z AUTO 14006KT 10SM CLR 12/00 A3028 RMK AO1
K2G4 210545Z AUTO 14006KT 10SM CLR 12/00 A3028 RMK AO1
K2G4 210525Z AUTO 14007KT 10SM CLR 12/00 A3028 RMK AO1
K2G4 210505Z AUTO 14006KT 10SM CLR 12/00 A3028 RMK AO1
K2G4 210445Z AUTO 14006KT 10SM CLR 11/00 A3029 RMK AO1
K2G4 210425Z AUTO 14005KT 10SM CLR 12/00 A3029 RMK AO1
K2G4 210405Z AUTO 13004KT 10SM CLR 11/01 A3029 RMK AO1
K2G4 210345Z AUTO 13004KT 10SM CLR 11/01 A3029 RMK AO1
K2G4 210325Z AUTO 00000KT 10SM CLR 12/01 A3030 RMK AO1
K2G4 210305Z AUTO 12003KT 10SM CLR 13/01 A3030 RMK AO1
K2G4 210245Z AUTO 13003KT 10SM CLR 12/01 A3029 RMK AO1
K2G4 210225Z AUTO 00000KT 10SM CLR 13/00 A3028 RMK AO1
K2G4 210205Z AUTO 00000KT 10SM CLR 13/00 A3028 RMK AO1
K2G4 210145Z AUTO 00000KT 10SM CLR 12/01 A3027 RMK AO1
K2G4 210125Z AUTO 00000KT 10SM CLR 12/01 A3028 RMK AO1
K2G4 210105Z AUTO 00000KT 10SM CLR 12/02 A3027 RMK AO1
K2G4 210045Z AUTO 00000KT 10SM CLR 12/02 A3026 RMK AO1
K2G4 210025Z AUTO 00000KT 10SM CLR 12/02 A3027 RMK AO1
K2G4 210005Z AUTO 00000KT 10SM CLR 13/02 A3027 RMK AO1
K2G4 202345Z AUTO 30003KT 10SM CLR 13/01 A3027 RMK AO1
K2G4 202305Z AUTO 32003KT 10SM CLR 14/01 A3026 RMK AO1
K2G4 202225Z AUTO 00000KT 10SM CLR 15/00 A3026 RMK AO1
K2G4 202205Z AUTO 00000KT 10SM CLR 16/00 A3026 RMK AO1
K2G4 202145Z AUTO 00000KT 10SM CLR 16/01 A3026 RMK AO1
K2G4 202105Z AUTO 27003KT 10SM CLR 17/02 A3026 RMK AO1
K2G4 202045Z AUTO 33003KT 10SM CLR 17/02 A3026 RMK AO1
K2G4 202025Z AUTO 00000KT 10SM CLR 17/02 A3026 RMK AO1
K2G4 202005Z AUTO 26003KT 10SM CLR 18/02 A3026 RMK AO1
K2G4 201945Z AUTO 30003KT 10SM CLR 17/02 A3026 RMK AO1
K2G4 201925Z AUTO 35003KT 10SM CLR 17/02 A3026 RMK AO1
K2G4 201905Z AUTO 29005KT 10SM CLR 17/02 A3026 RMK AO1
K2G4 201845Z AUTO 31003KT 10SM CLR 16/03 A3027 RMK AO1
K2G4 201825Z AUTO 34005KT 10SM CLR 17/02 A3027 RMK AO1
K2G4 201805Z AUTO 28003KT 10SM CLR 16/03 A3027 RMK AO1
K2G4 201745Z AUTO 29004KT 10SM CLR 16/03 A3028 RMK AO1
K2G4 201725Z AUTO 29005KT 10SM CLR 16/03 A3029 RMK AO1
K2G4 201625Z AUTO 28005KT 10SM CLR 15/05 A3030 RMK AO1
K2G4 201605Z AUTO 31005KT 10SM CLR 15/06 A3031 RMK AO1
K2G4 201545Z AUTO 28006KT 10SM CLR 14/06 A3031 RMK AO1
K2G4 201525Z AUTO 34004KT 10SM CLR 13/06 A3030 RMK AO1
K2G4 201505Z AUTO 33006KT 10SM CLR 13/07 A3030 RMK AO1
K2G4 201445Z AUTO 30006KT 10SM CLR 12/07 A3031 RMK AO1
K2G4 201425Z AUTO 29005KT 10SM CLR 12/07 A3030 RMK AO1
K2G4 201405Z AUTO 27006KT 10SM CLR 11/07 A3030 RMK AO1
K2G4 201345Z AUTO 26005KT 10SM CLR 11/07 A3030 RMK AO1
K2G4 201325Z AUTO 26003KT 10SM CLR 10/07 A3030 RMK AO1
K2G4 201305Z AUTO 26005KT 10SM CLR 10/07 A3029 RMK AO1
K2G4 201245Z AUTO 27005KT 10SM CLR 10/07 A3028 RMK AO1